• Join FlightAware (Why Join?)
  • Login
  • US Flag 
02:56AM EST


 

Airport Tracker/Info


-or-


 

Live Flight TrackerFlight Track Log ✈ EGF4152 ✈ 11-Jun-2013 ✈ KAZO - KORD

Flight Track Log - Related Links

Times and Time Zones

All times are in EDT time to prevent confusion due to time zone crossing. See the EGF4152 flight status page for this flight to view local times or setup timezone preferences in your user account.

Time Position Orientation Groundspeed Altitude Reporting Facility
EDT Latitude Longitude Course Direction KTS MPH feet Rate Location/Type
06:15AM 42.2753 -85.5478 294° West 177 204 2,500  Level Chicago Center
06:16AM 42.3164 -85.5586 349° North 192 221 4,300 1,920 Climbing Chicago Center
06:17AM 42.3343 -85.8018 304° West  Level FlightAware Approximate
06:17AM 42.3414 -85.6431 292° West 235 270 6,400  Level Chicago Center
06:18AM 42.3670 -85.8840 304° West  Level FlightAware Approximate
06:18AM 42.3653 -85.7314 290° West 249 287 8,900  Level Chicago Center
06:19AM 42.4032 -85.9663 298° West  Level FlightAware Approximate
06:19AM 42.3906 -85.8233 290° West 259 298 10,800  Level Chicago Center
06:20AM 42.4342 -86.0524 294° West  Level FlightAware Approximate
06:20AM 42.4192 -85.9292 290° West 293 337 11,800  Level Chicago Center
06:21AM 42.4519 -86.0464 291° West 325 374 13,000 1,140 Climbing Chicago Center
06:22AM 42.4789 -86.1681 287° West 335 386 14,100 480 Climbing Chicago Center
06:23AM 42.4978 -86.2978 281° West 347 399 14,000 -60 Descending Chicago Center
06:24AM 42.5172 -86.4250 282° West 342 394 14,000  Level Chicago Center
06:25AM 42.5361 -86.5508 282° West 340 391 14,000  Level Chicago Center
06:26AM 42.5569 -86.6772 283° West 342 394 14,000 -480 Level Chicago Center
06:27AM 42.5436 -86.8050 262° West 356 410 13,100 -1,260 Descending Chicago Center
06:28AM 42.5078 -86.9294 249° West 355 409 11,500 -1,440 Descending Chicago Center
06:29AM 42.4686 -87.0656 249° West 322 371 10,300 -1,140 Descending Chicago Center
06:30AM 42.4428 -87.1622 250° West 277 319 9,300 -900 Descending Chicago Center
06:31AM 42.4139 -87.2550 247° West 271 312 8,500 -840 Descending Chicago Center
06:32AM 42.3378 -87.2942 201° Southwest 293 337 7,700 -780 Descending Chicago Center
06:33AM 42.2722 -87.3125 192° South 280 322 7,000 -360 Descending Chicago Center
06:34AM 42.1886 -87.3628 204° Southwest 276 318 7,000  Level Chicago Center
06:35AM 42.1178 -87.4022 202° Southwest 277 319 7,000  Level Chicago Center
06:36AM 42.0469 -87.4408 202° Southwest 276 318 7,000 -360 Level Chicago Center
06:37AM 41.9894 -87.4825 208° Southwest 245 282 6,300 -840 Descending Chicago Center
06:38AM 41.9667 -87.5608 249° West 230 265 5,300 -1,140 Descending Chicago Center
06:39AM 41.9689 -87.6411 272° West 218 251 4,100 -1,200 Descending Chicago Center